createdAt,value
2024-02-29T00:01:27.861Z,60.46
2024-02-29T00:03:30.326Z,60.44
2024-02-29T00:05:32.788Z,60.68
2024-02-29T00:07:35.244Z,60.67
2024-02-29T00:09:38.530Z,60.65
2024-02-29T00:11:40.993Z,60.31
2024-02-29T00:13:43.543Z,59.64
2024-02-29T00:15:46.784Z,58.76
2024-02-29T00:17:50.270Z,58.63
2024-02-29T00:19:52.723Z,58.74
2024-02-29T00:21:56.301Z,58.73
2024-02-29T00:23:58.808Z,57.50
2024-02-29T00:26:02.077Z,57.11
2024-02-29T00:28:05.671Z,57.75
2024-02-29T00:30:08.683Z,56.80
2024-02-29T00:32:12.327Z,57.26
2024-02-29T00:34:16.300Z,57.33
2024-02-29T00:36:18.917Z,57.32
2024-02-29T00:38:22.101Z,57.82
2024-02-29T00:40:24.676Z,58.68
2024-02-29T00:42:27.332Z,57.60
2024-02-29T00:44:29.906Z,57.66
2024-02-29T00:46:33.456Z,57.76
2024-02-29T00:48:37.292Z,57.64
2024-02-29T00:50:39.767Z,58.56
2024-02-29T00:52:43.065Z,57.19
2024-02-29T00:54:45.520Z,57.53
2024-02-29T00:56:48.709Z,58.20
2024-02-29T00:58:51.193Z,57.76
2024-02-29T01:00:54.211Z,58.60
2024-02-29T01:02:57.869Z,58.25
2024-02-29T01:05:00.420Z,57.81
2024-02-29T01:07:02.921Z,58.42
2024-02-29T01:09:05.877Z,58.76
2024-02-29T01:11:08.582Z,57.88
2024-02-29T01:13:12.094Z,58.58
2024-02-29T01:15:15.369Z,58.51
2024-02-29T01:17:17.860Z,58.82
2024-02-29T01:19:20.815Z,58.12
2024-02-29T01:21:23.717Z,58.59
2024-02-29T01:23:26.508Z,57.63
2024-02-29T01:25:29.058Z,57.82
2024-02-29T01:27:31.968Z,58.60
2024-02-29T01:29:34.509Z,57.86
2024-02-29T01:31:37.060Z,56.93
2024-02-29T01:33:40.281Z,56.97
2024-02-29T01:35:43.429Z,56.16
2024-02-29T01:37:45.851Z,56.24
2024-02-29T01:39:48.307Z,56.61
2024-02-29T01:41:50.754Z,56.51
2024-02-29T01:43:58.169Z,56.33
2024-02-29T01:46:14.142Z,59.34
2024-02-29T01:48:17.093Z,59.35
2024-02-29T01:50:21.347Z,63.02
2024-02-29T01:52:27.604Z,64.86
2024-02-29T01:54:30.086Z,66.02
2024-02-29T01:56:32.571Z,67.93
2024-02-29T01:58:36.842Z,67.85
2024-02-29T02:00:39.322Z,69.67
2024-02-29T02:02:42.215Z,69.82
2024-02-29T02:04:47.803Z,71.76
2024-02-29T02:06:51.029Z,72.52
2024-02-29T02:08:53.593Z,73.46
2024-02-29T02:10:56.794Z,74.14
2024-02-29T02:12:59.427Z,75.12
2024-02-29T02:15:05.558Z,73.89
2024-02-29T02:17:09.434Z,74.45
2024-02-29T02:19:15.741Z,74.33
2024-02-29T02:21:18.974Z,74.70
2024-02-29T02:23:23.633Z,75.10
2024-02-29T02:25:26.217Z,74.90
2024-02-29T02:27:29.167Z,74.92
2024-02-29T02:29:32.523Z,73.13
2024-02-29T02:31:35.283Z,72.90
2024-02-29T02:33:38.547Z,71.33
2024-02-29T02:35:41.016Z,71.09
2024-02-29T02:37:43.511Z,70.43
2024-02-29T02:39:46.736Z,69.83
2024-02-29T02:41:50.085Z,68.93
2024-02-29T02:43:53.699Z,66.19
2024-02-29T02:45:57.175Z,64.07
2024-02-29T02:48:00.612Z,63.85
2024-02-29T02:50:03.424Z,63.01
2024-02-29T02:52:06.162Z,63.16
2024-02-29T02:54:09.497Z,63.16
2024-02-29T02:56:11.993Z,62.63
2024-02-29T02:58:14.607Z,62.36
2024-02-29T03:03:46.245Z,62.28
2024-02-29T03:05:48.950Z,61.46
2024-02-29T03:07:51.627Z,61.23
2024-02-29T03:09:54.118Z,60.21
2024-02-29T03:11:56.573Z,59.68
2024-02-29T03:13:59.469Z,59.37
2024-02-29T03:16:02.086Z,58.72
2024-02-29T03:18:08.284Z,59.86
2024-02-29T03:20:14.941Z,60.83
2024-02-29T03:22:17.431Z,61.49
2024-02-29T03:24:20.586Z,59.57
2024-02-29T03:26:23.106Z,58.45
2024-02-29T03:28:25.644Z,58.37
2024-02-29T03:30:28.114Z,60.55
2024-02-29T03:32:31.529Z,60.23
2024-02-29T03:34:34.380Z,58.60
2024-02-29T03:36:36.840Z,59.51
2024-02-29T03:38:41.434Z,59.11
2024-02-29T03:45:11.712Z,60.16
2024-02-29T09:38:06.134Z,64.65
2024-02-29T09:40:09.510Z,64.36
2024-02-29T09:42:14.423Z,63.20
2024-02-29T09:44:19.173Z,63.55
2024-02-29T09:46:23.751Z,63.32
2024-02-29T09:48:26.760Z,63.40
2024-02-29T09:50:29.668Z,63.14
2024-02-29T09:52:36.323Z,62.04
2024-02-29T09:54:42.045Z,62.66
2024-02-29T09:56:44.940Z,62.83
2024-02-29T09:58:47.749Z,62.62
2024-02-29T10:00:50.479Z,62.63
2024-02-29T10:02:55.467Z,62.10
2024-02-29T10:04:58.473Z,61.99
2024-02-29T10:07:00.954Z,63.04
2024-02-29T10:09:03.569Z,62.85
2024-02-29T10:11:07.566Z,62.64
2024-02-29T10:13:10.111Z,63.10
2024-02-29T10:15:13.272Z,63.18
2024-02-29T10:17:15.793Z,63.31
2024-02-29T10:19:18.376Z,62.39
2024-02-29T10:21:23.087Z,61.36
2024-02-29T10:23:28.300Z,61.49
2024-02-29T10:25:30.852Z,61.30
2024-02-29T10:27:33.627Z,61.63
2024-02-29T10:29:36.121Z,60.83
2024-02-29T10:31:39.920Z,60.38
2024-02-29T10:33:49.406Z,60.34
2024-02-29T10:35:54.560Z,60.15
2024-02-29T10:37:58.774Z,60.87
2024-02-29T10:40:02.784Z,60.23
2024-02-29T10:42:07.875Z,60.86
2024-02-29T10:44:11.770Z,60.65
2024-02-29T10:46:17.691Z,60.25
2024-02-29T10:48:30.583Z,60.44
2024-02-29T10:50:45.024Z,60.02
2024-02-29T10:52:54.342Z,61.27
2024-02-29T10:55:09.931Z,61.14
2024-02-29T10:57:17.204Z,61.58
2024-02-29T10:59:21.297Z,61.80
2024-02-29T11:01:24.654Z,61.47
2024-02-29T11:03:27.587Z,60.52
2024-02-29T11:05:30.371Z,60.25
2024-02-29T11:07:36.236Z,60.56
2024-02-29T11:09:39.601Z,60.44
2024-02-29T11:11:44.858Z,60.90
2024-02-29T11:13:48.903Z,61.59
2024-02-29T11:15:55.048Z,60.67
2024-02-29T11:17:57.600Z,60.28
2024-02-29T11:20:09.384Z,60.32
2024-02-29T11:22:12.317Z,60.62
2024-02-29T11:24:23.990Z,59.40
2024-02-29T11:26:29.245Z,59.90
2024-02-29T11:28:38.806Z,59.18
2024-02-29T11:30:43.364Z,59.00
2024-02-29T11:32:46.003Z,59.60
2024-02-29T11:34:49.431Z,60.24
2024-02-29T11:36:53.166Z,60.34
2024-02-29T11:38:56.887Z,60.67
2024-02-29T11:40:59.339Z,60.57
2024-02-29T11:43:03.749Z,60.74
2024-02-29T11:45:07.723Z,60.73
2024-02-29T11:47:10.171Z,59.57
2024-02-29T11:49:19.603Z,60.34
2024-02-29T11:51:25.126Z,59.30
2024-02-29T11:53:30.536Z,60.37
2024-02-29T11:55:34.102Z,59.70
2024-02-29T11:57:37.868Z,59.91
2024-02-29T11:59:41.005Z,60.51
2024-02-29T12:01:45.453Z,60.10
2024-02-29T12:03:48.060Z,60.23
2024-02-29T12:08:03.020Z,60.23
2024-02-29T12:10:06.901Z,60.79
2024-02-29T12:12:09.977Z,60.58
2024-02-29T12:14:13.530Z,60.60
2024-02-29T12:16:17.122Z,60.71
2024-02-29T12:18:20.782Z,61.07
2024-02-29T12:20:24.388Z,60.14
2024-02-29T12:22:28.132Z,60.97
2024-02-29T12:24:34.921Z,60.43
2024-02-29T12:26:39.658Z,60.18
2024-02-29T12:28:42.435Z,60.50
2024-02-29T12:30:50.432Z,61.13
2024-02-29T12:32:55.085Z,60.72
2024-02-29T12:34:58.261Z,61.36
2024-02-29T12:37:01.955Z,60.50
2024-02-29T12:39:04.618Z,60.55
2024-02-29T12:41:08.204Z,59.65
2024-02-29T12:43:15.894Z,60.08
2024-02-29T12:45:19.766Z,60.45
2024-02-29T12:47:22.412Z,60.81
2024-02-29T12:49:25.057Z,60.17
2024-02-29T12:51:28.274Z,59.71
2024-02-29T12:53:30.755Z,60.24
2024-02-29T12:55:33.306Z,59.03
2024-02-29T12:57:36.703Z,60.08
2024-02-29T12:59:39.191Z,58.82
2024-02-29T13:01:42.749Z,58.13
2024-02-29T13:03:45.369Z,58.43
2024-02-29T13:05:47.891Z,59.35
2024-02-29T13:07:50.919Z,58.78
2024-02-29T13:09:53.567Z,57.89
2024-02-29T13:11:56.465Z,55.90
2024-02-29T13:13:59.056Z,56.03
2024-02-29T13:16:02.024Z,56.41
2024-02-29T13:18:05.505Z,57.72
2024-02-29T13:20:08.668Z,58.51
2024-02-29T13:22:11.127Z,57.82
2024-02-29T13:24:13.812Z,57.35
2024-02-29T13:26:17.169Z,57.38
2024-02-29T13:28:20.756Z,56.93
2024-02-29T13:30:23.359Z,56.58
2024-02-29T13:32:26.177Z,58.49
2024-02-29T13:34:28.829Z,57.35
2024-02-29T13:36:31.502Z,57.50
2024-02-29T13:38:35.721Z,57.53
2024-02-29T13:40:38.325Z,57.19
2024-02-29T13:42:43.444Z,57.60
2024-02-29T13:44:49.408Z,57.68
2024-02-29T13:46:51.897Z,57.12
2024-02-29T13:48:54.496Z,57.09
2024-02-29T13:51:17.017Z,57.55
2024-02-29T13:53:19.490Z,58.79
2024-02-29T13:55:22.172Z,58.42
2024-02-29T13:57:24.755Z,57.89
2024-02-29T13:59:29.450Z,58.76
2024-02-29T14:01:31.990Z,57.83
2024-02-29T14:03:34.527Z,58.35
2024-02-29T14:05:37.308Z,57.37
2024-02-29T14:07:42.143Z,56.94
2024-02-29T14:09:45.442Z,56.24
2024-02-29T14:11:47.954Z,55.22
2024-02-29T14:13:50.517Z,55.36
2024-02-29T14:15:53.046Z,55.28
2024-02-29T14:17:55.650Z,54.56
2024-02-29T14:19:58.842Z,55.94
2024-02-29T14:22:02.939Z,55.24
2024-02-29T14:24:05.642Z,54.82
2024-02-29T14:26:08.789Z,54.12
2024-02-29T14:28:12.220Z,54.97
2024-02-29T14:30:15.041Z,54.71
2024-02-29T14:32:17.882Z,55.68
2024-02-29T14:34:21.763Z,55.85
2024-02-29T14:36:25.886Z,55.14
2024-02-29T14:38:28.653Z,55.55
2024-02-29T14:40:31.817Z,56.17
2024-02-29T14:42:34.825Z,56.04
2024-02-29T14:44:37.895Z,55.35
2024-02-29T14:46:40.338Z,55.76
2024-02-29T14:48:43.437Z,55.62
2024-02-29T14:50:46.527Z,54.92
2024-02-29T14:52:49.740Z,54.24
2024-02-29T14:54:52.630Z,53.22
2024-02-29T14:56:55.221Z,52.98
2024-02-29T14:58:59.397Z,53.96
2024-02-29T15:01:02.092Z,52.91
2024-02-29T15:03:05.102Z,53.87
2024-02-29T15:05:09.007Z,54.06
2024-02-29T15:07:13.398Z,54.84
2024-02-29T15:09:16.573Z,56.23
2024-02-29T15:11:19.686Z,55.21
2024-02-29T15:13:22.963Z,53.50
2024-02-29T15:15:28.534Z,53.51
2024-02-29T15:17:34.038Z,52.96
2024-02-29T15:19:36.878Z,53.64
2024-02-29T15:21:39.854Z,53.92
2024-02-29T15:23:43.031Z,54.38
2024-02-29T15:25:49.137Z,54.01
2024-02-29T15:27:56.071Z,54.24
2024-02-29T15:29:59.000Z,54.53
2024-02-29T15:32:02.137Z,53.71
2024-02-29T15:34:05.459Z,54.72
2024-02-29T15:36:08.256Z,55.44
2024-02-29T15:38:12.530Z,55.70
2024-02-29T15:40:15.080Z,56.30
2024-02-29T15:42:18.009Z,54.89
2024-02-29T15:44:20.997Z,52.73
2024-02-29T15:46:23.864Z,52.34
2024-02-29T15:48:27.297Z,51.87
2024-02-29T15:50:29.773Z,51.73
2024-02-29T15:52:32.302Z,52.09
2024-02-29T15:54:36.328Z,52.67
2024-02-29T15:56:39.798Z,52.87
2024-02-29T15:58:44.091Z,53.75
2024-02-29T16:00:47.338Z,51.91
2024-02-29T16:02:50.855Z,51.02
2024-02-29T16:04:54.193Z,50.57
2024-02-29T16:07:00.873Z,49.87
2024-02-29T16:09:03.649Z,51.24
2024-02-29T16:11:06.931Z,51.03
2024-02-29T16:13:11.270Z,50.70
2024-02-29T16:15:15.109Z,50.38
2024-02-29T16:17:17.978Z,50.37
2024-02-29T16:19:20.891Z,49.57
2024-02-29T16:21:23.497Z,48.86
2024-02-29T16:23:26.306Z,49.00
2024-02-29T16:25:28.929Z,47.45
2024-02-29T16:27:31.578Z,48.36
2024-02-29T16:29:36.992Z,49.51
2024-02-29T16:31:40.197Z,47.21
2024-02-29T16:33:42.754Z,47.47
2024-02-29T16:35:45.586Z,47.94
2024-02-29T16:37:48.170Z,49.26
2024-02-29T16:39:50.828Z,48.30
2024-02-29T16:41:53.792Z,48.05
2024-02-29T16:43:57.166Z,46.27
2024-02-29T16:46:00.685Z,48.27
2024-02-29T16:48:03.867Z,48.97
2024-02-29T16:50:07.236Z,49.94
2024-02-29T16:52:10.787Z,48.52
2024-02-29T16:54:14.071Z,48.23
2024-02-29T16:56:17.925Z,48.26
2024-02-29T16:58:21.092Z,47.19
2024-02-29T17:00:26.022Z,47.71
2024-02-29T17:02:28.512Z,46.88
2024-02-29T17:04:34.193Z,43.73
2024-02-29T17:06:37.723Z,44.65
2024-02-29T17:08:41.847Z,45.58
2024-02-29T17:10:45.576Z,43.61
2024-02-29T17:12:49.797Z,44.14
2024-02-29T17:14:52.261Z,42.43
2024-02-29T17:16:55.458Z,43.50
2024-02-29T17:18:58.004Z,44.25
2024-02-29T17:21:00.544Z,47.31
2024-02-29T17:23:03.087Z,47.08
2024-02-29T17:25:06.352Z,46.01
2024-02-29T17:27:08.850Z,42.41
2024-02-29T17:29:11.297Z,45.43
2024-02-29T17:31:13.802Z,45.22
2024-02-29T17:33:16.298Z,44.74
2024-02-29T17:35:20.073Z,43.08
2024-02-29T17:37:24.283Z,45.58
2024-02-29T17:39:27.663Z,45.52
2024-02-29T17:41:30.966Z,46.66
2024-02-29T17:43:33.541Z,44.67
2024-02-29T17:45:37.235Z,44.37
2024-02-29T17:47:41.910Z,42.87
2024-02-29T17:49:44.639Z,44.16
2024-02-29T17:51:48.085Z,42.81
2024-02-29T17:53:51.332Z,43.82
2024-02-29T17:55:54.015Z,43.24
2024-02-29T17:57:56.786Z,43.45
2024-02-29T17:59:59.251Z,44.87
2024-02-29T18:02:01.984Z,45.68
2024-02-29T18:04:05.113Z,42.92
2024-02-29T18:06:08.191Z,43.11
2024-02-29T18:08:11.073Z,43.41
2024-02-29T18:10:15.205Z,41.30
2024-02-29T18:12:17.941Z,42.11
2024-02-29T18:14:20.806Z,43.04
2024-02-29T18:16:23.347Z,42.27
2024-02-29T18:18:26.185Z,42.80
2024-02-29T18:20:28.665Z,44.34
2024-02-29T18:22:31.217Z,42.19
2024-02-29T18:24:33.742Z,42.66
2024-02-29T18:26:36.322Z,41.35
2024-02-29T18:28:38.995Z,41.20
2024-02-29T18:30:41.905Z,41.53
2024-02-29T18:32:44.447Z,42.38
2024-02-29T18:34:47.379Z,42.54
2024-02-29T18:36:50.668Z,42.65
2024-02-29T18:38:53.304Z,42.18
2024-02-29T18:40:55.735Z,41.60
2024-02-29T18:42:58.383Z,42.37
2024-02-29T18:45:02.171Z,42.12
2024-02-29T18:47:06.067Z,41.54
2024-02-29T18:49:09.544Z,41.16
2024-02-29T18:51:12.043Z,41.75
2024-02-29T18:53:14.670Z,42.57
2024-02-29T18:55:18.365Z,42.66
2024-02-29T18:57:21.624Z,42.86
2024-02-29T18:59:24.104Z,40.48
2024-02-29T19:01:27.495Z,40.93
2024-02-29T19:03:30.049Z,42.21
2024-02-29T19:05:32.696Z,43.36
2024-02-29T19:07:35.361Z,42.54
2024-02-29T19:09:38.496Z,42.47
2024-02-29T19:11:43.750Z,42.51
2024-02-29T19:13:46.300Z,42.77
2024-02-29T19:15:51.709Z,41.74
2024-02-29T19:17:54.560Z,41.73
2024-02-29T19:19:57.075Z,40.28
2024-02-29T19:21:59.678Z,39.30
2024-02-29T19:24:02.164Z,38.69
2024-02-29T19:26:04.749Z,38.72
2024-02-29T19:28:07.385Z,40.24
2024-02-29T19:30:12.156Z,37.93
2024-02-29T19:32:14.620Z,37.14
2024-02-29T19:34:17.598Z,37.60
2024-02-29T19:36:20.808Z,37.02
2024-02-29T19:38:25.169Z,39.71
2024-02-29T19:40:27.821Z,41.09
2024-02-29T19:42:30.362Z,40.13
2024-02-29T19:44:32.818Z,39.03
2024-02-29T19:46:35.549Z,39.64
2024-02-29T19:48:38.043Z,39.71
2024-02-29T19:50:41.033Z,38.85
2024-02-29T19:52:43.699Z,39.21
2024-02-29T19:54:46.235Z,38.73
2024-02-29T19:56:48.794Z,38.18
2024-02-29T19:58:51.292Z,37.08
2024-02-29T20:01:02.308Z,37.53
2024-02-29T20:03:07.186Z,38.45
2024-02-29T20:05:11.057Z,36.40
2024-02-29T20:07:13.580Z,35.37
2024-02-29T20:09:17.162Z,35.73
2024-02-29T20:11:19.725Z,36.21
2024-02-29T20:13:22.422Z,37.81
2024-02-29T20:15:25.105Z,36.77
2024-02-29T20:17:27.687Z,36.79
2024-02-29T20:19:31.088Z,37.99
2024-02-29T20:21:33.811Z,37.37
2024-02-29T20:23:36.354Z,37.33
2024-02-29T20:25:40.341Z,35.86
2024-02-29T20:27:55.707Z,36.31
2024-02-29T20:29:58.244Z,35.91
2024-02-29T20:32:00.701Z,35.62
2024-02-29T20:34:03.289Z,35.56
2024-02-29T20:36:06.328Z,35.67
2024-02-29T20:38:09.285Z,35.23
2024-02-29T20:40:12.640Z,35.24
2024-02-29T20:42:15.235Z,35.26
2024-02-29T20:44:17.702Z,34.61
2024-02-29T20:46:20.270Z,36.26
2024-02-29T20:48:23.561Z,36.22
2024-02-29T20:50:28.640Z,36.42
2024-02-29T20:52:31.277Z,35.67
2024-02-29T20:54:33.893Z,35.30
2024-02-29T20:56:36.349Z,35.26
2024-02-29T20:58:38.819Z,35.41
2024-02-29T21:00:41.307Z,36.66
2024-02-29T21:02:43.804Z,36.43
2024-02-29T21:04:46.237Z,35.83
2024-02-29T21:06:49.695Z,36.14
2024-02-29T21:08:53.917Z,36.72
2024-02-29T21:10:56.413Z,36.48
2024-02-29T21:13:01.581Z,35.85
2024-02-29T21:15:04.989Z,35.90
2024-02-29T21:17:07.503Z,36.30
2024-02-29T21:19:10.091Z,36.27
2024-02-29T21:21:12.586Z,35.94
2024-02-29T21:23:15.187Z,35.55
2024-02-29T21:25:18.025Z,36.04
2024-02-29T21:27:20.583Z,35.69
2024-02-29T21:29:23.090Z,36.65
2024-02-29T21:31:25.779Z,36.98
2024-02-29T21:33:28.288Z,36.48
2024-02-29T21:35:30.898Z,36.13
2024-02-29T21:37:33.425Z,38.29
2024-02-29T21:39:44.087Z,36.84
2024-02-29T21:41:48.176Z,36.63
2024-02-29T21:43:51.225Z,36.66
2024-02-29T21:45:54.629Z,36.90
2024-02-29T21:47:58.125Z,36.15
2024-02-29T21:50:00.897Z,36.95
2024-02-29T21:52:03.528Z,36.84
2024-02-29T21:54:06.623Z,36.19
2024-02-29T21:56:13.382Z,37.08
2024-02-29T21:58:15.906Z,37.47
2024-02-29T22:00:18.753Z,37.88
2024-02-29T22:02:21.433Z,37.87
2024-02-29T22:04:24.183Z,38.80
2024-02-29T22:06:26.855Z,38.61
2024-02-29T22:08:32.174Z,38.18
2024-02-29T22:10:35.605Z,38.63
2024-02-29T22:12:39.464Z,38.21
2024-02-29T22:14:41.917Z,38.53
2024-02-29T22:16:44.559Z,38.16
2024-02-29T22:18:48.555Z,38.49
2024-02-29T22:20:51.037Z,37.58
2024-02-29T22:22:53.495Z,37.45
2024-02-29T22:24:56.328Z,37.41
2024-02-29T22:26:59.247Z,38.24
2024-02-29T22:29:02.461Z,36.99
2024-02-29T22:31:05.176Z,36.38
2024-02-29T22:33:07.816Z,37.32
2024-02-29T22:35:10.530Z,36.87
2024-02-29T22:37:14.360Z,37.72
2024-02-29T22:39:17.372Z,37.85
2024-02-29T22:41:20.599Z,37.17
2024-02-29T22:43:23.074Z,38.47
2024-02-29T22:45:25.707Z,38.76
2024-02-29T22:47:28.262Z,38.31
2024-02-29T22:49:30.789Z,39.12
2024-02-29T22:51:35.537Z,37.99
2024-02-29T22:53:38.069Z,37.63
2024-02-29T22:55:40.738Z,38.63
2024-02-29T22:57:43.303Z,39.13
2024-02-29T22:59:45.760Z,38.96
2024-02-29T23:01:48.993Z,39.47
2024-02-29T23:03:51.627Z,39.10
2024-02-29T23:05:54.106Z,39.13
2024-02-29T23:07:57.176Z,39.38
2024-02-29T23:10:00.716Z,39.45
2024-02-29T23:12:03.542Z,38.96
2024-02-29T23:14:06.377Z,40.01
2024-02-29T23:16:08.881Z,39.60
2024-02-29T23:18:11.537Z,39.78
2024-02-29T23:20:14.088Z,40.78
2024-02-29T23:22:16.677Z,40.11
2024-02-29T23:24:19.143Z,40.12
2024-02-29T23:26:22.796Z,40.09
2024-02-29T23:28:25.477Z,40.85
2024-02-29T23:30:27.997Z,40.06
2024-02-29T23:32:30.451Z,38.73
2024-02-29T23:34:34.031Z,39.43
2024-02-29T23:36:37.209Z,39.36
2024-02-29T23:38:39.699Z,40.45
2024-02-29T23:40:42.243Z,40.79
2024-02-29T23:42:45.467Z,41.50
2024-02-29T23:44:47.912Z,40.95
2024-02-29T23:46:51.209Z,38.69
2024-02-29T23:48:53.739Z,39.05
2024-02-29T23:50:56.221Z,40.01
2024-02-29T23:52:58.713Z,40.48
2024-02-29T23:55:01.377Z,40.28
2024-02-29T23:57:04.233Z,41.13
2024-02-29T23:59:07.257Z,41.82
